North Platte, Nebraska
Current Conditions -  °F | °C
As of 10:53 AM on Saturday 20 Dec 2014 (Local Time) from KLBF Reporting Station
Clear Clear  
Wind Chill: 24°   Ceiling: Unl
Heat Index: 30°   Visibility: 8mi
Dew Point: 24°   Wind: 6mph
Humidity: 79%   Direction: 260°W
Pressure: 30.01"   Gusts: NA
Location:  41.14°N, 100.76°W
Report Text: KLBF 201653Z AUTO 26005KT 8SM CLR M01/M04 A3001 RMK AO2 SLP195 T10111044
Loading
Personal Weather Stations






























Interactive Weather Map New forecast layout! Learn more

10-Day Weather Forecast

Advertisements
Track Severe Weather on mobile